Alpha, Michigan
Current Conditions -  °F | °C
As of 3:54 PM on Friday 31 Oct 2014 (Local Time) from KIMT Reporting Station
Broken Clouds Broken Clouds  
Wind Chill: 22°   Ceiling: 4700
Heat Index: 33°   Visibility: 10mi
Dew Point: 18°   Wind: 18mph
Humidity: 54%   Direction: 360°N
Pressure: 30.38"   Gusts: 26mph
Location:  46.04°N, 88.38°W
Report Text: KIMT 312054Z AUTO 36016G23KT 10SM FEW038 BKN047 01/M08 A3038 RMK AO2 PK WND 36028/2034 SLP303 60000 T00061078 53008
Loading
Personal Weather Stations






























Interactive Weather Map New forecast layout! Learn more

10-Day Weather Forecast

Advertisements
Track Severe Weather on mobile